Time;durP1;ratioP1;P1;durP2;ratioP2;P2;SDS_P1;SDS_P2;PMS_P1;PMS_P2;Temp;Humidity;BMP_temperature;BMP_pressure;BME280_temperature;BME280_humidity;BME280_pressure;Samples;Min_cycle;Max_cycle;Signal;HPM_P1;HPM_P2
2022/11/29 00:00:10;;;;;;;;;;;;;;;8.08;100.00;99067.91;10213656;23;19995;-73
2022/11/29 00:04:11;;;;;;;;;;;;;;;8.11;100.00;99060.13;10222254;23;19956;-73
2022/11/29 00:08:13;;;;;;;;;;;;;;;8.11;100.00;99062.72;10221402;23;20469;-73
2022/11/29 00:12:14;;;;;;;;;;;;;;;8.13;100.00;99068.75;10224432;23;19963;-74
2022/11/29 00:16:15;;;;;;;;;;;;;;;8.12;100.00;99072.22;10213923;23;19924;-73
2022/11/29 00:20:17;;;;;;;;;;;;;;;8.13;100.00;99066.16;10223139;23;19924;-73
2022/11/29 00:24:18;;;;;;;;;;;;;;;8.13;100.00;99063.59;10223829;23;19984;-73
2022/11/29 00:28:19;;;;;;;;;;;;;;;8.13;100.00;99068.75;10221887;23;19930;-73
2022/11/29 00:36:31;;;;;;;;;;;;;;;8.07;100.00;99072.19;10215796;23;19925;-73
2022/11/29 00:40:32;;;;;;;;;;;;;;;8.06;100.00;99069.59;10213932;23;19955;-73
2022/11/29 00:44:33;;;;;;;;;;;;;;;8.04;100.00;99069.59;10217526;23;19986;-74
2022/11/29 00:48:35;;;;;;;;;;;;;;;8.05;100.00;99073.03;10207086;23;20000;-74
2022/11/29 00:52:36;;;;;;;;;;;;;;;8.04;100.00;99077.34;10216045;23;19920;-73
2022/11/29 00:56:38;;;;;;;;;;;;;;;8.04;100.00;99073.91;10216541;23;19924;-73
2022/11/29 01:00:39;;;;;;;;;;;;;;;8.02;100.00;99076.50;10212164;23;20731;-73
2022/11/29 01:04:41;;;;;;;;;;;;;;;8.02;100.00;99083.38;10224861;23;20445;-73
2022/11/29 01:08:44;;;;;;;;;;;;;;;7.99;100.00;99078.22;10225467;23;19924;-73
2022/11/29 01:12:45;;;;;;;;;;;;;;;7.99;100.00;99088.56;10226771;23;20322;-74
2022/11/29 01:16:47;;;;;;;;;;;;;;;7.99;100.00;99091.16;10218951;23;20298;-74
2022/11/29 01:20:58;;;;;;;;;;;;;;;7.99;100.00;99091.16;10219346;23;19928;-73
2022/11/29 01:25:00;;;;;;;;;;;;;;;7.98;100.00;99092.88;10221181;23;20061;-73
2022/11/29 01:29:01;;;;;;;;;;;;;;;7.98;100.00;99089.44;10193542;23;20023;-73
2022/11/29 01:33:03;;;;;;;;;;;;;;;8.00;100.00;99091.16;10210868;23;19924;-73
2022/11/29 01:37:04;;;;;;;;;;;;;;;8.00;100.00;99090.28;10218832;23;20359;-73
2022/11/29 01:41:07;;;;;;;;;;;;;;;7.98;100.00;99084.25;10219001;23;20459;-74
2022/11/29 01:45:21;;;;;;;;;;;;;;;7.96;100.00;99086.84;10187481;23;19975;-73
2022/11/29 01:49:26;;;;;;;;;;;;;;;7.99;100.00;99092.00;10221589;23;19978;-73
2022/11/29 01:53:28;;;;;;;;;;;;;;;7.99;100.00;99096.31;10195966;23;20281;-73
2022/11/29 01:57:30;;;;;;;;;;;;;;;7.97;100.00;99096.31;10221401;23;19975;-73
2022/11/29 02:01:33;;;;;;;;;;;;;;;7.97;100.00;99104.06;10187222;23;19924;-74
2022/11/29 02:05:36;;;;;;;;;;;;;;;7.99;100.00;99110.09;10220790;23;19924;-73
2022/11/29 02:09:37;;;;;;;;;;;;;;;8.00;100.00;99106.66;10218901;23;20493;-73
2022/11/29 02:13:44;;;;;;;;;;;;;;;8.00;100.00;99104.06;10220960;23;19924;-73
2022/11/29 02:17:55;;;;;;;;;;;;;;;7.99;100.00;99094.59;10210645;23;19928;-73
2022/11/29 02:21:56;;;;;;;;;;;;;;;7.98;100.00;99090.28;10220341;23;20019;-73
2022/11/29 02:26:13;;;;;;;;;;;;;;;7.97;100.00;99092.88;10220988;23;20486;-73
2022/11/29 02:30:28;;;;;;;;;;;;;;;7.96;100.00;99104.94;10212806;23;19924;-73
2022/11/29 02:34:29;;;;;;;;;;;;;;;7.94;100.00;99101.50;10218064;23;19935;-73
2022/11/29 02:38:46;;;;;;;;;;;;;;;7.91;100.00;99104.09;10217965;23;19974;-73
2022/11/29 02:43:03;;;;;;;;;;;;;;;7.92;100.00;99104.94;10218955;23;19934;-73
2022/11/29 02:47:08;;;;;;;;;;;;;;;7.89;100.00;99114.38;10209723;23;19932;-73
2022/11/29 02:51:29;;;;;;;;;;;;;;;7.91;100.00;99108.38;10218434;23;19962;-73
2022/11/29 02:55:42;;;;;;;;;;;;;;;7.88;100.00;99112.66;10221089;23;20414;-73
2022/11/29 02:59:49;;;;;;;;;;;;;;;7.89;100.00;99108.34;10218798;23;19924;-73
2022/11/29 03:04:29;;;;;;;;;;;;;;;7.87;100.00;99112.66;10216932;23;20007;-73
2022/11/29 03:08:30;;;;;;;;;;;;;;;7.89;100.00;99118.69;10025643;23;20344;-73
2022/11/29 03:12:32;;;;;;;;;;;;;;;7.89;100.00;99119.56;10145366;23;19937;-73
2022/11/29 03:16:37;;;;;;;;;;;;;;;7.90;100.00;99117.88;10199466;23;19955;-73
2022/11/29 03:20:46;;;;;;;;;;;;;;;7.84;100.00;99121.28;10223669;23;20018;-73
2022/11/29 03:24:56;;;;;;;;;;;;;;;7.83;100.00;99121.28;10226240;23;19980;-73
2022/11/29 03:29:13;;;;;;;;;;;;;;;7.82;100.00;99112.66;10225448;23;20363;-73
2022/11/29 03:33:33;;;;;;;;;;;;;;;7.82;100.00;99114.38;10216417;23;19924;-74
2022/11/29 03:37:54;;;;;;;;;;;;;;;7.79;100.00;99120.41;10198978;23;19927;-73
2022/11/29 03:42:01;;;;;;;;;;;;;;;7.79;100.00;99123.00;10224470;23;20299;-73
2022/11/29 03:46:05;;;;;;;;;;;;;;;7.78;100.00;99115.25;10191293;23;20359;-73
2022/11/29 03:50:12;;;;;;;;;;;;;;;7.75;100.00;99120.41;10198259;23;19942;-73
2022/11/29 03:54:16;;;;;;;;;;;;;;;7.73;100.00;99119.56;10224390;23;20007;-73
2022/11/29 03:58:21;;;;;;;;;;;;;;;7.71;100.00;99126.41;10222807;23;20431;-73
2022/11/29 04:02:40;;;;;;;;;;;;;;;7.71;100.00;99129.00;10217395;23;19924;-73
2022/11/29 04:07:01;;;;;;;;;;;;;;;7.70;100.00;99130.72;10222438;23;19931;-73
2022/11/29 04:11:12;;;;;;;;;;;;;;;7.70;100.00;99130.72;10219034;23;19924;-73
2022/11/29 04:15:32;;;;;;;;;;;;;;;7.70;100.00;99140.19;10188783;23;20350;-73
2022/11/29 04:19:45;;;;;;;;;;;;;;;7.68;100.00;99147.06;10220743;23;19924;-73
2022/11/29 04:23:56;;;;;;;;;;;;;;;7.66;100.00;99147.06;10194814;23;19990;-73
2022/11/29 04:28:06;;;;;;;;;;;;;;;7.65;100.00;99153.09;10221604;23;19935;-73
2022/11/29 04:32:26;;;;;;;;;;;;;;;7.67;100.00;99147.94;10189534;23;19928;-73
2022/11/29 04:36:34;;;;;;;;;;;;;;;7.69;100.00;99152.25;10219317;23;19924;-73
2022/11/29 04:40:44;;;;;;;;;;;;;;;7.67;100.00;99159.13;10194777;23;19990;-73
2022/11/29 04:44:58;;;;;;;;;;;;;;;7.67;100.00;99153.97;10196591;23;19928;-73
2022/11/29 04:49:18;;;;;;;;;;;;;;;7.66;100.00;99159.13;10188018;23;19920;-73
2022/11/29 04:53:46;;;;;;;;;;;;;;;7.67;100.00;99168.59;10222307;23;20619;-74
2022/11/29 04:57:56;;;;;;;;;;;;;;;7.70;100.00;99181.53;10219384;23;19960;-73
2022/11/29 05:02:01;;;;;;;;;;;;;;;7.70;100.00;99192.72;10215614;23;20006;-74
2022/11/29 05:06:32;;;;;;;;;;;;;;;7.67;100.00;99194.44;10222126;23;19924;-73
2022/11/29 05:10:43;;;;;;;;;;;;;;;7.69;100.00;99206.50;10202624;23;19927;-73
2022/11/29 05:14:45;;;;;;;;;;;;;;;7.69;100.00;99197.91;10220905;23;20010;-74
2022/11/29 05:19:05;;;;;;;;;;;;;;;7.69;100.00;99206.50;10215220;23;20324;-73
2022/11/29 05:23:42;;;;;;;;;;;;;;;7.70;100.00;99207.38;10221956;23;20556;-73
2022/11/29 05:27:43;;;;;;;;;;;;;;;7.71;100.00;99216.84;10110214;23;19936;-73
2022/11/29 05:32:04;;;;;;;;;;;;;;;7.73;100.00;99222.91;10214616;23;19958;-74
2022/11/29 05:36:32;;;;;;;;;;;;;;;7.72;100.00;99227.22;10219928;23;19932;-74
2022/11/29 05:40:44;;;;;;;;;;;;;;;7.73;100.00;99226.38;10220403;23;19963;-73
2022/11/29 05:45:03;;;;;;;;;;;;;;;7.75;100.00;99235.00;10222236;23;20010;-74
2022/11/29 05:49:22;;;;;;;;;;;;;;;7.74;100.00;99235.84;10221752;23;20011;-74
2022/11/29 05:53:28;;;;;;;;;;;;;;;7.76;100.00;99228.09;10225141;23;19971;-74
2022/11/29 05:57:48;;;;;;;;;;;;;;;7.76;100.00;99234.13;10223772;23;20017;-74
2022/11/29 06:02:08;;;;;;;;;;;;;;;7.74;100.00;99233.25;10193025;23;19963;-74
2022/11/29 06:06:39;;;;;;;;;;;;;;;7.74;100.00;99237.56;10224280;23;19924;-74
2022/11/29 06:10:55;;;;;;;;;;;;;;;7.72;100.00;99247.91;10198180;23;19924;-74
2022/11/29 06:15:16;;;;;;;;;;;;;;;7.73;100.00;99244.47;10220648;23;19928;-74
2022/11/29 06:19:36;;;;;;;;;;;;;;;7.74;100.00;99250.50;10216839;23;19928;-73
2022/11/29 06:23:37;;;;;;;;;;;;;;;7.68;100.00;99258.19;10223227;23;20239;-74
2022/11/29 06:27:58;;;;;;;;;;;;;;;7.66;100.00;99249.56;10195572;23;19923;-74
2022/11/29 06:32:07;;;;;;;;;;;;;;;7.64;100.00;99261.63;10216465;23;19974;-75
2022/11/29 06:36:16;;;;;;;;;;;;;;;7.63;100.00;99260.75;10195360;23;19935;-74
2022/11/29 06:40:17;;;;;;;;;;;;;;;7.63;100.00;99265.94;10221154;23;19932;-74
2022/11/29 06:44:19;;;;;;;;;;;;;;;7.63;100.00;99270.22;10218820;23;20015;-73
2022/11/29 06:48:25;;;;;;;;;;;;;;;7.62;100.00;99278.84;10212908;23;19928;-75
2022/11/29 06:52:39;;;;;;;;;;;;;;;7.60;100.00;99275.38;10196334;23;19955;-76
2022/11/29 06:56:47;;;;;;;;;;;;;;;7.60;100.00;99281.41;10219814;23;19989;-75
2022/11/29 07:00:53;;;;;;;;;;;;;;;7.57;100.00;99278.81;10188026;23;20406;-75
2022/11/29 07:05:01;;;;;;;;;;;;;;;7.56;100.00;99290.88;10219663;23;19924;-75
2022/11/29 07:09:12;;;;;;;;;;;;;;;7.51;100.00;99289.09;10195871;23;19928;-74
2022/11/29 07:13:13;;;;;;;;;;;;;;;7.47;100.00;99298.56;10195520;23;20292;-74
2022/11/29 07:17:34;;;;;;;;;;;;;;;7.43;100.00;99288.19;10226177;23;19985;-74
2022/11/29 07:21:44;;;;;;;;;;;;;;;7.42;100.00;99289.06;10263925;23;19951;-74
2022/11/29 07:25:46;;;;;;;;;;;;;;;7.41;100.00;99289.91;10226741;23;19935;-75
2022/11/29 07:30:04;;;;;;;;;;;;;;;7.41;100.00;99295.09;10200267;23;19967;-76
2022/11/29 07:34:14;;;;;;;;;;;;;;;7.38;100.00;99302.81;10223709;23;19924;-76
2022/11/29 07:38:35;;;;;;;;;;;;;;;7.35;100.00;99310.50;10228151;23;19987;-76
2022/11/29 07:42:47;;;;;;;;;;;;;;;7.34;100.00;99319.97;10229879;23;20527;-77
2022/11/29 07:46:48;;;;;;;;;;;;;;;7.35;100.00;99319.13;10214199;23;19924;-75
2022/11/29 07:50:50;;;;;;;;;;;;;;;7.36;100.00;99320.88;10220218;23;19928;-75
2022/11/29 07:54:51;;;;;;;;;;;;;;;7.40;100.00;99325.22;10224458;23;19951;-75
2022/11/29 07:58:52;;;;;;;;;;;;;;;7.46;100.00;99324.38;10228746;23;20295;-75
2022/11/29 08:02:54;;;;;;;;;;;;;;;7.51;100.00;99331.31;10226106;23;20588;-75
2022/11/29 08:06:59;;;;;;;;;;;;;;;7.57;100.00;99338.25;10232284;23;19981;-76
2022/11/29 08:11:00;;;;;;;;;;;;;;;7.64;100.00;99331.38;10204498;23;20228;-75
2022/11/29 08:15:03;;;;;;;;;;;;;;;7.69;100.00;99346.06;10222393;23;20003;-75
2022/11/29 08:19:05;;;;;;;;;;;;;;;7.71;100.00;99346.94;10194679;23;20307;-75
2022/11/29 08:23:07;;;;;;;;;;;;;;;7.72;100.00;99347.78;10216763;23;20425;-75
2022/11/29 08:27:09;;;;;;;;;;;;;;;7.74;100.00;99357.31;10220690;23;19963;-74
2022/11/29 08:31:12;;;;;;;;;;;;;;;7.75;100.00;99364.22;10184756;23;19999;-74
2022/11/29 08:35:14;;;;;;;;;;;;;;;7.79;100.00;99363.38;10217775;23;19924;-74
2022/11/29 08:39:15;;;;;;;;;;;;;;;7.85;100.00;99373.72;10220145;23;19924;-75
2022/11/29 08:43:17;;;;;;;;;;;;;;;7.94;100.00;99377.25;10227407;23;20006;-75
2022/11/29 08:47:34;;;;;;;;;;;;;;;8.01;100.00;99366.06;10223229;23;19954;-75
2022/11/29 08:51:36;;;;;;;;;;;;;;;8.08;100.00;99379.06;10235084;23;20573;-75
2022/11/29 08:55:41;;;;;;;;;;;;;;;8.13;100.00;99377.34;10236135;23;19932;-75
2022/11/29 08:59:43;;;;;;;;;;;;;;;8.20;100.00;99386.00;10238287;23;20035;-75
2022/11/29 09:04:05;;;;;;;;;;;;;;;8.22;100.00;99381.69;10217013;23;19956;-75
2022/11/29 09:08:06;;;;;;;;;;;;;;;8.25;100.00;99392.03;10245201;23;20346;-75
2022/11/29 09:12:07;;;;;;;;;;;;;;;8.28;100.00;99388.63;10247227;23;19928;-75
2022/11/29 09:16:11;;;;;;;;;;;;;;;8.30;100.00;99395.53;10254027;23;19924;-76
2022/11/29 09:20:13;;;;;;;;;;;;;;;8.31;100.00;99397.28;10256508;23;19924;-77
2022/11/29 09:24:14;;;;;;;;;;;;;;;8.34;100.00;99401.63;10224212;23;19936;-76
2022/11/29 09:28:16;;;;;;;;;;;;;;;8.33;100.00;99403.31;10244222;23;19956;-75
2022/11/29 09:32:17;;;;;;;;;;;;;;;8.35;100.00;99411.13;10233409;23;19999;-76
2022/11/29 09:36:19;;;;;;;;;;;;;;;8.35;100.00;99413.69;10215276;23;19924;-76
2022/11/29 09:40:31;;;;;;;;;;;;;;;8.41;100.00;99416.31;10219848;23;19967;-76
2022/11/29 09:44:51;;;;;;;;;;;;;;;8.44;100.00;99426.69;10220140;23;20338;-76
2022/11/29 09:49:01;;;;;;;;;;;;;;;8.48;100.00;99421.53;10210818;23;19935;-76
2022/11/29 09:53:17;;;;;;;;;;;;;;;8.53;100.00;99416.38;10218697;23;19940;-75
2022/11/29 09:57:20;;;;;;;;;;;;;;;8.60;100.00;99425.88;10193448;23;20035;-76
2022/11/29 10:01:33;;;;;;;;;;;;;;;8.67;100.00;99414.72;10210901;23;20031;-75
2022/11/29 10:05:41;;;;;;;;;;;;;;;8.75;100.00;99417.31;10218009;23;19958;-75
2022/11/29 10:09:44;;;;;;;;;;;;;;;8.79;100.00;99419.03;10218638;23;19932;-76
2022/11/29 10:13:52;;;;;;;;;;;;;;;8.86;100.00;99419.94;10218380;23;19955;-75
2022/11/29 10:17:56;;;;;;;;;;;;;;;8.91;100.00;99429.44;10211822;23;20575;-79
2022/11/29 10:22:01;;;;;;;;;;;;;;;8.92;99.96;99415.63;10220090;23;19956;-76
2022/11/29 10:26:06;;;;;;;;;;;;;;;8.96;100.00;99419.09;10194790;23;20007;-76
2022/11/29 10:30:12;;;;;;;;;;;;;;;8.97;99.16;99416.50;10221707;23;19999;-75
2022/11/29 10:34:21;;;;;;;;;;;;;;;8.99;99.35;99408.75;10202243;23;20192;-76
2022/11/29 10:38:25;;;;;;;;;;;;;;;9.06;99.59;99411.34;10204390;23;19920;-78
2022/11/29 10:42:47;;;;;;;;;;;;;;;9.16;99.21;99420.03;10228560;23;19974;-77
2022/11/29 10:46:48;;;;;;;;;;;;;;;9.25;99.29;99425.19;10218286;23;19936;-77
2022/11/29 10:50:51;;;;;;;;;;;;;;;9.29;98.46;99426.94;10226750;23;20406;-77
2022/11/29 10:54:54;;;;;;;;;;;;;;;9.35;98.44;99426.94;10209162;23;19924;-81
2022/11/29 10:58:56;;;;;;;;;;;;;;;9.38;97.88;99429.53;10230085;23;20062;-77
2022/11/29 11:03:14;;;;;;;;;;;;;;;9.39;97.15;99433.00;10197586;23;20402;-77
2022/11/29 11:07:34;;;;;;;;;;;;;;;9.42;97.20;99427.81;10233285;23;19960;-78
2022/11/29 11:11:37;;;;;;;;;;;;;;;9.37;96.65;99426.94;10208052;23;19924;-79
2022/11/29 11:15:38;;;;;;;;;;;;;;;9.35;96.49;99423.50;10231598;23;19928;-76
2022/11/29 11:19:40;;;;;;;;;;;;;;;9.33;96.80;99422.59;10249088;23;20332;-76
2022/11/29 11:23:52;;;;;;;;;;;;;;;9.36;97.04;99417.44;10233971;23;19924;-78
2022/11/29 11:27:54;;;;;;;;;;;;;;;9.43;96.96;99419.16;10231926;23;19978;-79
2022/11/29 11:31:57;;;;;;;;;;;;;;;9.54;96.95;99414.88;10248454;23;19971;-81
2022/11/29 11:36:03;;;;;;;;;;;;;;;9.61;96.46;99416.59;10257416;23;19970;-77
2022/11/29 11:40:27;;;;;;;;;;;;;;;9.68;95.85;99422.63;10259286;23;19920;-78
2022/11/29 11:44:29;;;;;;;;;;;;;;;9.83;95.79;99417.44;10258941;23;19927;-80
2022/11/29 11:48:48;;;;;;;;;;;;;;;9.97;96.54;99413.09;10243601;23;20191;-76
2022/11/29 11:52:52;;;;;;;;;;;;;;;10.04;96.54;99418.25;10248412;23;19924;-81
2022/11/29 11:56:54;;;;;;;;;;;;;;;10.05;95.60;99419.97;10253117;23;19931;-82
2022/11/29 12:00:57;;;;;;;;;;;;;;;10.07;94.23;99426.94;10262341;23;19932;-84
2022/11/29 12:05:15;;;;;;;;;;;;;;;10.14;94.36;99426.03;10265727;23;19975;-82
2022/11/29 12:09:46;;;;;;;;;;;;;;;10.14;92.98;99428.63;10260565;23;19931;-76
2022/11/29 12:13:49;;;;;;;;;;;;;;;10.16;93.08;99434.66;10242927;23;19924;-77
2022/11/29 12:18:00;;;;;;;;;;;;;;;10.18;91.91;99434.66;10221986;23;19924;-78
2022/11/29 12:22:05;;;;;;;;;;;;;;;10.19;90.63;99431.19;10219302;23;19924;-76
2022/11/29 12:26:12;;;;;;;;;;;;;;;10.15;90.19;99432.09;10218237;23;19956;-78
2022/11/29 12:30:34;;;;;;;;;;;;;;;10.17;89.70;99433.81;10210559;23;19936;-78
2022/11/29 12:34:54;;;;;;;;;;;;;;;10.20;90.05;99436.38;10237585;23;20369;-80
2022/11/29 12:39:01;;;;;;;;;;;;;;;10.23;89.55;99443.31;10207472;23;20064;-80
2022/11/29 12:43:02;;;;;;;;;;;;;;;10.23;90.10;99445.94;10233354;23;19955;-77
2022/11/29 12:47:04;;;;;;;;;;;;;;;10.28;90.71;99445.06;10227766;23;19920;-77
2022/11/29 12:52:04;;;;;;;;;;;;;;;10.37;90.42;99443.31;10248678;23;19966;-80
2022/11/29 12:56:18;;;;;;;;;;;;;;;10.37;89.87;99446.75;10066331;23;19936;-78
2022/11/29 13:00:19;;;;;;;;;;;;;;;10.37;89.20;99444.16;10077869;23;19928;-77
2022/11/29 13:04:27;;;;;;;;;;;;;;;10.38;88.29;99445.03;10083362;23;19932;-77
2022/11/29 13:08:47;;;;;;;;;;;;;;;10.34;88.89;99451.97;10034083;23;20077;-79
2022/11/29 13:12:54;;;;;;;;;;;;;;;10.31;88.80;99451.13;10055176;23;20522;-79
2022/11/29 13:17:03;;;;;;;;;;;;;;;10.27;88.91;99458.06;10065788;23;19926;-77
2022/11/29 13:21:10;;;;;;;;;;;;;;;10.21;89.08;99463.22;10044573;23;20008;-77
2022/11/29 13:25:22;;;;;;;;;;;;;;;10.15;89.78;99461.50;10110760;23;19928;-77
2022/11/29 13:29:24;;;;;;;;;;;;;;;10.10;90.23;99460.63;10220874;23;20007;-80
2022/11/29 13:33:30;;;;;;;;;;;;;;;10.04;90.10;99464.94;10188880;23;20343;-76
2022/11/29 13:37:36;;;;;;;;;;;;;;;9.99;89.98;99462.38;10221847;23;19927;-76
2022/11/29 13:41:46;;;;;;;;;;;;;;;9.99;90.62;99463.22;10222633;23;20003;-76
2022/11/29 13:46:06;;;;;;;;;;;;;;;9.97;91.12;99464.09;10191521;23;20014;-77
2022/11/29 13:50:27;;;;;;;;;;;;;;;9.92;91.95;99464.13;10214817;23;19924;-77
2022/11/29 13:54:30;;;;;;;;;;;;;;;9.91;93.46;99471.91;10238262;23;19942;-77
2022/11/29 13:58:34;;;;;;;;;;;;;;;9.91;94.27;99467.56;10213764;23;19924;-77
2022/11/29 14:02:35;;;;;;;;;;;;;;;9.91;94.58;99469.31;10214107;23;20367;-77
2022/11/29 14:06:37;;;;;;;;;;;;;;;9.89;94.84;99471.91;10239880;23;19924;-82
2022/11/29 14:10:39;;;;;;;;;;;;;;;9.89;95.34;99476.22;10213918;23;19959;-79
2022/11/29 14:14:47;;;;;;;;;;;;;;;9.88;95.96;99477.97;10237905;23;19924;-76
2022/11/29 14:19:02;;;;;;;;;;;;;;;9.87;95.76;99471.00;10232433;23;19946;-78
2022/11/29 14:23:03;;;;;;;;;;;;;;;9.84;96.37;99465.84;10229957;23;19986;-76
2022/11/29 14:27:05;;;;;;;;;;;;;;;9.81;97.13;99465.84;10231282;23;19924;-77
2022/11/29 14:31:07;;;;;;;;;;;;;;;9.79;97.42;99472.75;10198105;23;19935;-77
2022/11/29 14:35:09;;;;;;;;;;;;;;;9.75;97.78;99477.94;10216440;23;19924;-76
2022/11/29 14:39:30;;;;;;;;;;;;;;;9.73;97.41;99477.94;10220592;23;19929;-76
2022/11/29 14:43:35;;;;;;;;;;;;;;;9.72;96.34;99486.59;10218276;23;19971;-76
2022/11/29 14:47:46;;;;;;;;;;;;;;;9.72;96.68;99484.00;10209161;23;20015;-76
2022/11/29 14:52:05;;;;;;;;;;;;;;;9.71;96.28;99496.97;10218035;23;19959;-79
2022/11/29 14:56:25;;;;;;;;;;;;;;;9.69;95.83;99496.94;10218547;23;19924;-81
2022/11/29 15:00:33;;;;;;;;;;;;;;;9.67;94.98;99493.47;10209683;23;19924;-77
2022/11/29 15:04:36;;;;;;;;;;;;;;;9.63;94.60;99494.34;10217167;23;19928;-78
2022/11/29 15:08:57;;;;;;;;;;;;;;;9.61;93.48;99499.53;10192785;23;19931;-77
2022/11/29 15:12:59;;;;;;;;;;;;;;;9.58;93.03;99499.53;10218095;23;20010;-79
2022/11/29 15:17:13;;;;;;;;;;;;;;;9.54;92.27;99507.31;10206083;23;19990;-80
2022/11/29 15:21:27;;;;;;;;;;;;;;;9.50;92.90;99508.16;10219675;23;20003;-79
2022/11/29 15:25:30;;;;;;;;;;;;;;;9.41;94.07;99513.34;10217727;23;19995;-82
2022/11/29 15:29:32;;;;;;;;;;;;;;;9.34;94.86;99509.88;10221166;23;19925;-81
2022/11/29 15:33:36;;;;;;;;;;;;;;;9.30;95.18;99514.16;10210182;23;19948;-79
2022/11/29 15:37:39;;;;;;;;;;;;;;;9.25;95.95;99518.47;10244749;23;19952;-79
2022/11/29 15:41:41;;;;;;;;;;;;;;;9.19;96.35;99522.78;10219377;23;19978;-77
2022/11/29 15:45:50;;;;;;;;;;;;;;;9.09;96.73;99527.06;10188226;23;19931;-79
2022/11/29 15:49:52;;;;;;;;;;;;;;;9.03;97.69;99525.31;10242631;23;20307;-77
2022/11/29 15:54:13;;;;;;;;;;;;;;;9.00;97.47;99522.72;10218025;23;19924;-78
2022/11/29 15:58:14;;;;;;;;;;;;;;;8.94;97.70;99533.03;10193188;23;19928;-80
2022/11/29 16:02:22;;;;;;;;;;;;;;;8.88;97.72;99534.72;10209606;23;19928;-78
2022/11/29 16:06:29;;;;;;;;;;;;;;;8.84;97.25;99528.69;10219627;23;20371;-77
2022/11/29 16:10:36;;;;;;;;;;;;;;;8.80;97.46;99539.88;10193423;23;19952;-77
2022/11/29 16:14:47;;;;;;;;;;;;;;;8.76;97.55;99535.53;10193776;23;20024;-79
2022/11/29 16:18:49;;;;;;;;;;;;;;;8.72;97.62;99546.72;10207663;23;19928;-77
2022/11/29 16:23:03;;;;;;;;;;;;;;;8.66;96.85;99536.34;10192565;23;19924;-76
2022/11/29 16:27:05;;;;;;;;;;;;;;;8.64;97.91;99540.66;10217298;23;19966;-76
2022/11/29 16:31:07;;;;;;;;;;;;;;;8.60;98.43;99539.75;10209602;23;20011;-76
2022/11/29 16:35:20;;;;;;;;;;;;;;;8.59;98.95;99542.34;10218261;23;19932;-77
2022/11/29 16:39:23;;;;;;;;;;;;;;;8.56;98.27;99542.31;10193486;23;19994;-79
2022/11/29 16:43:42;;;;;;;;;;;;;;;8.53;97.01;99542.31;10217854;23;20019;-77
2022/11/29 16:47:46;;;;;;;;;;;;;;;8.40;98.08;99549.97;10206246;23;20019;-77
2022/11/29 16:51:53;;;;;;;;;;;;;;;8.34;98.32;99551.66;10238111;23;20216;-77
2022/11/29 16:55:55;;;;;;;;;;;;;;;8.29;98.70;99555.91;10217002;23;20395;-77
2022/11/29 16:59:56;;;;;;;;;;;;;;;8.29;98.99;99561.09;10192933;23;20510;-77
2022/11/29 17:03:58;;;;;;;;;;;;;;;8.28;98.24;99561.94;10206604;23;19939;-78
2022/11/29 17:08:00;;;;;;;;;;;;;;;8.27;98.48;99561.09;10215592;23;19928;-77
2022/11/29 17:12:02;;;;;;;;;;;;;;;8.28;98.29;99562.81;10214461;23;20007;-78
2022/11/29 17:16:03;;;;;;;;;;;;;;;8.28;98.07;99565.41;10208034;23;20002;-77
2022/11/29 17:20:06;;;;;;;;;;;;;;;8.26;98.38;99572.28;10219935;23;19956;-76
2022/11/29 17:24:12;;;;;;;;;;;;;;;8.26;98.72;99574.88;10217072;23;19966;-76
2022/11/29 17:28:13;;;;;;;;;;;;;;;8.26;98.68;99577.47;10218825;23;19924;-77
2022/11/29 17:32:15;;;;;;;;;;;;;;;8.28;99.22;99574.88;10266706;23;19932;-77
2022/11/29 17:36:18;;;;;;;;;;;;;;;8.26;98.55;99577.47;10274295;23;19916;-81
2022/11/29 17:40:20;;;;;;;;;;;;;;;8.27;98.79;99584.38;10276782;23;19964;-77
2022/11/29 17:44:21;;;;;;;;;;;;;;;8.29;99.15;99586.97;10277905;23;19935;-79
2022/11/29 17:48:23;;;;;;;;;;;;;;;8.30;98.70;99583.53;10279587;23;19921;-79
2022/11/29 17:52:31;;;;;;;;;;;;;;;8.31;99.07;99585.25;10279937;23;19928;-80
2022/11/29 17:56:32;;;;;;;;;;;;;;;8.29;99.30;99587.81;10280262;23;19930;-77
2022/11/29 18:00:34;;;;;;;;;;;;;;;8.31;99.00;99585.25;10215363;23;19931;-78
2022/11/29 18:04:36;;;;;;;;;;;;;;;8.33;98.53;99599.94;10223235;23;19924;-77
2022/11/29 18:08:41;;;;;;;;;;;;;;;8.34;98.13;99601.69;10221251;23;19951;-77
2022/11/29 18:12:43;;;;;;;;;;;;;;;8.35;98.37;99603.41;10219911;23;19959;-78
2022/11/29 18:16:44;;;;;;;;;;;;;;;8.37;97.89;99608.59;10221443;23;20007;-77
2022/11/29 18:20:46;;;;;;;;;;;;;;;8.36;97.77;99612.06;10219871;23;19924;-77
2022/11/29 18:24:47;;;;;;;;;;;;;;;8.38;97.67;99605.16;10243894;23;20007;-78
2022/11/29 18:28:49;;;;;;;;;;;;;;;8.37;97.43;99611.19;10220373;23;19967;-77
2022/11/29 18:32:50;;;;;;;;;;;;;;;8.36;97.89;99617.22;10186166;23;20314;-78
2022/11/29 18:36:52;;;;;;;;;;;;;;;8.35;97.08;99624.13;10222075;23;20363;-77
2022/11/29 18:40:53;;;;;;;;;;;;;;;8.34;96.39;99617.22;10221835;23;20015;-77
2022/11/29 18:44:55;;;;;;;;;;;;;;;8.33;96.53;99625.78;10220583;23;20011;-77
2022/11/29 18:48:59;;;;;;;;;;;;;;;8.33;96.52;99630.09;10214028;23;19928;-77
2022/11/29 18:53:01;;;;;;;;;;;;;;;8.33;97.12;99627.53;10220736;23;20279;-78
2022/11/29 18:57:02;;;;;;;;;;;;;;;8.31;96.35;99631.81;10220075;23;19990;-77
2022/11/29 19:01:14;;;;;;;;;;;;;;;8.31;96.80;99634.41;10217890;23;19924;-78
2022/11/29 19:05:16;;;;;;;;;;;;;;;8.30;97.32;99636.13;10231874;23;19924;-80
2022/11/29 19:09:19;;;;;;;;;;;;;;;8.30;97.55;99641.31;10267891;23;19920;-79
2022/11/29 19:13:21;;;;;;;;;;;;;;;8.30;97.00;99637.84;10297386;23;19920;-79
2022/11/29 19:17:22;;;;;;;;;;;;;;;8.29;97.72;99643.88;10244104;23;20047;-77
2022/11/29 19:21:25;;;;;;;;;;;;;;;8.27;97.08;99641.28;10219231;23;20288;-77
2022/11/29 19:25:35;;;;;;;;;;;;;;;8.26;97.24;99641.22;10194852;23;19924;-79
2022/11/29 19:29:37;;;;;;;;;;;;;;;8.25;96.33;99645.53;10219861;23;20003;-77
2022/11/29 19:33:41;;;;;;;;;;;;;;;8.26;95.63;99643.81;10243325;23;19904;-79
2022/11/29 19:37:42;;;;;;;;;;;;;;;8.25;95.03;99649.84;10283202;23;19928;-81
2022/11/29 19:41:45;;;;;;;;;;;;;;;8.25;94.61;99648.13;10284699;23;19917;-78
2022/11/29 19:45:47;;;;;;;;;;;;;;;8.26;94.86;99649.91;10271024;23;19927;-78
2022/11/29 19:49:48;;;;;;;;;;;;;;;8.25;94.50;99650.72;10220943;23;19994;-76
2022/11/29 19:53:51;;;;;;;;;;;;;;;8.26;93.17;99649.00;10216880;23;19935;-77
2022/11/29 19:57:53;;;;;;;;;;;;;;;8.25;92.86;99649.84;10218867;23;20425;-77
2022/11/29 20:01:55;;;;;;;;;;;;;;;8.24;92.53;99650.72;10213774;23;19924;-79
2022/11/29 20:05:56;;;;;;;;;;;;;;;8.25;91.09;99652.44;10214562;23;19933;-77
2022/11/29 20:09:58;;;;;;;;;;;;;;;8.23;90.55;99651.56;10264597;23;19936;-78
2022/11/29 20:14:00;;;;;;;;;;;;;;;8.22;91.06;99648.09;10282145;23;19915;-79
2022/11/29 20:18:03;;;;;;;;;;;;;;;8.18;91.63;99656.69;10280488;23;19908;-78
2022/11/29 20:22:04;;;;;;;;;;;;;;;8.15;91.81;99667.88;10280105;23;19924;-78
2022/11/29 20:26:11;;;;;;;;;;;;;;;8.13;90.62;99671.31;10276725;23;19924;-77
2022/11/29 20:30:12;;;;;;;;;;;;;;;8.14;89.52;99667.88;10277996;23;19915;-76
2022/11/29 20:34:14;;;;;;;;;;;;;;;8.12;89.44;99674.75;10192072;23;19928;-77
2022/11/29 20:38:38;;;;;;;;;;;;;;;8.09;89.31;99678.19;10217347;23;19963;-77
2022/11/29 20:42:57;;;;;;;;;;;;;;;8.08;89.65;99676.44;10215022;23;20389;-77
2022/11/29 20:46:58;;;;;;;;;;;;;;;8.06;89.23;99678.13;10184497;23;20205;-78
2022/11/29 20:51:01;;;;;;;;;;;;;;;8.03;89.16;99678.09;10216501;23;19978;-76
2022/11/29 20:55:02;;;;;;;;;;;;;;;8.02;88.25;99688.44;10215838;23;19928;-76
2022/11/29 20:59:04;;;;;;;;;;;;;;;8.00;88.50;99680.66;10220608;23;19928;-76
2022/11/29 21:03:05;;;;;;;;;;;;;;;7.97;88.70;99682.34;10274194;23;19924;-77
2022/11/29 21:07:07;;;;;;;;;;;;;;;7.91;88.93;99680.56;10274486;23;19908;-77
2022/11/29 21:11:09;;;;;;;;;;;;;;;7.87;88.38;99681.38;10275214;23;19924;-76
2022/11/29 21:15:11;;;;;;;;;;;;;;;7.78;88.95;99684.72;10271210;23;19920;-77
2022/11/29 21:19:17;;;;;;;;;;;;;;;7.71;89.90;99695.84;10275337;23;19975;-76